Tiempo atmosférico en la estación meteorológica de Algarrobo, Málaga (80 m.)



Fecha
DESCASC
Temp. máxima en grados centígrados (hora)
DESCASC
Temp. mínima en grados centígrados (hora)
DESCASC
Temp. media en grados centígrados
DESCASC
Racha de viento máxima en m/sg (hora)
DESCASC
Velocidad máxima media en intervalos de 10 minutos(hora)
DESCASC
Precipitaciones diarias en mm
DESCASC
Precipitaciones de 00:00 a 06:00 en mm
DESCASC
Precipitaciones de 06:00 a 12:00 en mm
DESCASC
Precipitaciones de 12:00 a 18:00 en mm
DESCASC
Precipitaciones de 18:00 a 24:00 en mm
DESCASC
18-08-2019 31.8 (18:20) 20.7 (06:00) 26.3 4.72 (15:20) 3.33 (13:10) -- -- -- -- --
17-08-2019 27.7 (14:30) 19.2 (07:50) 23.5 5.28 (16:10) 3.33 (16:00) -- -- -- -- --
16-08-2019 29.5 (12:30) 19.8 (07:20) 24.6 4.72 (14:50) 3.33 (14:30) -- -- -- -- --
15-08-2019 28.8 (12:30) 19.9 (00:00) 24.3 5 (13:40) 3.33 (14:50) -- -- -- -- --
14-08-2019 28.6 (13:10) 22.9 (00:00) 25.8 6.39 (14:20) 4.17 (12:00) -- -- -- -- --
13-08-2019 30.4 (15:40) 20.6 (00:00) 25.5 5.83 (16:40) 3.61 (14:40) -- -- -- -- --
12-08-2019 30.2 (16:20) 21.6 (00:00) 25.9 6.94 (02:10) 4.72 (16:50) -- -- -- -- --
11-08-2019 34.6 (20:40) 20.9 (00:00) 27.7 9.17 (21:20) 6.11 (21:10) -- -- -- -- --
10-08-2019 33.5 (17:20) 20.5 (00:00) 27 6.11 (11:40) 3.61 (11:50) -- -- -- -- --
09-08-2019 30.4 (18:00) 19.1 (00:00) 24.8 5.56 (12:50) 3.33 (16:30) -- -- -- -- --
08-08-2019 32.5 (19:10) 22.4 (00:00) 27.4 6.11 (15:50) 4.44 (15:10) -- -- -- -- --
07-08-2019 34.7 (18:40) 19.4 (00:00) 27.1 8.33 (15:10) 3.61 (15:10) -- -- -- -- --
06-08-2019 31.7 (19:10) 20.7 (00:00) 26.2 6.67 (07:50) 3.33 (07:50) -- -- -- -- --
05-08-2019 29.3 (17:20) 20.5 (00:00) 24.9 8.33 (12:40) 5 (12:30) -- -- -- -- --
04-08-2019 29.1 (19:00) 21.8 (00:00) 25.4 5.28 (12:40) 3.61 (16:20) -- -- -- -- --
03-08-2019 29.2 (15:30) 20.9 (00:00) 25.1 5 (15:20) 3.61 (12:10) -- -- -- -- --
02-08-2019 28.7 (15:20) 20.7 (00:00) 24.7 6.11 (12:30) 4.17 (14:10) -- -- -- -- --
01-08-2019 30.6 (15:10) 21.3 (00:00) 25.9 5.28 (15:40) 3.89 (16:00) -- -- -- -- --
31-07-2019 29.8 (16:50) 21.7 (00:00) 25.8 6.11 (01:00) 4.17 (14:50) -- -- -- -- --
30-07-2019 29.7 (17:20) 17.3 (00:00) 23.5 6.39 (23:10) 3.61 (12:40) -- -- -- -- --
29-07-2019 29.5 (16:40) 18.4 (00:00) 23.9 5.83 (13:20) 3.89 (13:20) -- -- -- -- --
28-07-2019 27.8 (17:10) 19.9 (00:00) 23.8 8.61 (00:30) 5.28 (00:30) -- -- -- -- --
27-07-2019 33.7 (15:50) 23.6 (00:00) 28.7 14.17 (19:10) 10 (13:20) -- -- -- -- --
26-07-2019 33.2 (20:30) 18.6 (00:00) 25.9 12.78 (16:20) 7.5 (16:20) -- -- -- -- --
25-07-2019 31 (18:00) 21.2 (00:00) 26.1 4.72 (14:20) 3.06 (12:20) -- -- -- -- --
24-07-2019 30.1 (15:00) 20.9 (00:00) 25.5 5 (16:00) 3.89 (16:00) -- -- -- -- --
23-07-2019 28.8 (15:40) 21.8 (00:00) 25.3 8.06 (12:20) 5.28 (12:20) -- -- -- -- --
22-07-2019 30.5 (15:10) 22.7 (00:00) 26.6 5.28 (16:20) 3.89 (16:30) -- -- -- -- --
21-07-2019 29.5 (15:40) 23 (00:00) 26.3 5.28 (13:40) 3.33 (13:20) -- -- -- -- --

Gráficas

Temp. máximas Temp. mínimas Temp. medias Precipitaciones Rachas de viento máximas Velocidades máximas media en intervalos de 10 minutos

Datos horarios

Fecha y hora oficial Temperatura (ºC) Velocidad del viento (km/h) Dirección del viento Racha (km/h) Dirección de racha Precipitación (mm) Presión (hPa) Tendencia (hPa) Humedad (%)
2019-08-19 23:00:00 24.6 3 Sudeste 7 Sudeste -- -- -- 80
2019-08-19 22:00:00 25.2 4 Sudeste 6 Sudeste -- -- -- 69
2019-08-19 21:00:00 27 2 Sur 8 Sudoeste -- -- -- 67
2019-08-19 20:00:00 31.1 6 Sudoeste 10 Sur -- -- -- 56
2019-08-19 19:00:00 33 5 Sudoeste 10 Sur -- -- -- 42
2019-08-19 18:00:00 31.6 6 Sudoeste 13 Oeste -- -- -- 53
2019-08-19 17:00:00 32.5 6 Sur 14 Sudoeste -- -- -- 36
2019-08-19 16:00:00 30.8 10 Sudoeste 15 Sudoeste -- -- -- 47
2019-08-19 15:00:00 29.5 8 Sudoeste 17 Sudoeste -- -- -- 55
2019-08-19 14:00:00 28.9 10 Sur 18 Sur -- -- -- 68
2019-08-19 13:00:00 30.6 11 Sur 18 Sudeste -- -- -- 52
2019-08-19 12:00:00 29.1 8 Sur 15 Sur -- -- -- 59
2019-08-19 11:00:00 26.8 10 Sur 13 Sur -- -- -- 73
2019-08-19 10:00:00 25.7 3 Oeste 6 Sudoeste -- -- -- 65
2019-08-19 09:00:00 22 0 Calma 5 Norte -- -- -- 73
2019-08-19 08:00:00 19.3 3 Norte 6 Nordeste -- -- -- 79
2019-08-19 07:00:00 19.3 0 Calma 6 Norte -- -- -- 72
2019-08-19 06:00:00 19.8 2 Nordeste 4 Norte -- -- -- 76
2019-08-19 05:00:00 20.5 2 Norte 6 Norte -- -- -- 67
2019-08-19 04:00:00 21.3 0 Calma 6 Nordeste -- -- -- 68
2019-08-19 03:00:00 21.5 2 Este 5 Este -- -- -- 75
2019-08-19 02:00:00 22.1 0 Calma 4 Norte -- -- -- 69
2019-08-19 01:00:00 23.3 0 Calma 13 Este -- -- -- 63
2019-08-19 00:00:00 24.3 4 Sudeste 8 Sudoeste -- -- -- 68
2019-08-18 23:00:00 26.9 6 Sudoeste 10 Sudoeste -- -- -- 64
2019-08-18 22:00:00 27.3 7 Noroeste 10 Noroeste -- -- -- 39
2019-08-18 21:00:00 29.3 3 Norte 6 Norte -- -- -- 46
2019-08-18 20:00:00 29.6 3 Sudoeste 10 Sudoeste -- -- -- 52
2019-08-18 19:00:00 30.7 6 Sudoeste 13 Sudoeste -- -- -- 49
2019-08-18 18:00:00 30.7 8 Sudoeste 14 Sudoeste -- -- -- 34
2019-08-18 17:00:00 29.7 6 Sur 13 Sudoeste -- -- -- 49
2019-08-18 16:00:00 28.7 9 Sudoeste 17 Sudoeste -- -- -- 62
2019-08-18 15:00:00 28.3 10 Sudoeste 16 Sur -- -- -- 67
2019-08-18 14:00:00 27.9 9 Sudoeste 17 Sudoeste -- -- -- 69
2019-08-18 13:00:00 27.9 10 Sur 15 Sudoeste -- -- -- 72
2019-08-18 12:00:00 27.6 8 Sudoeste 12 Sur -- -- -- 69
2019-08-18 11:00:00 26.6 5 Sur 9 Sudoeste -- -- -- 73
2019-08-18 10:00:00 25.3 3 Sur 6 Sur -- -- -- 78
2019-08-18 09:00:00 22.5 2 Nordeste 6 Nordeste -- -- -- 86
2019-08-18 08:00:00 21.3 3 Sudeste 7 Sudeste -- -- -- 87
2019-08-18 07:00:00 21.4 2 Sudeste 11 Sur -- -- -- 72
2019-08-18 06:00:00 20.7 2 Norte 5 Nordeste -- -- -- 66
2019-08-18 05:00:00 21.1 0 Calma 10 Norte -- -- -- 67
2019-08-18 04:00:00 21.1 2 Norte 11 Norte -- -- -- 71
2019-08-18 03:00:00 21.3 4 Norte 9 Norte -- -- -- 68
2019-08-18 02:00:00 21.2 0 Calma 6 Norte -- -- -- 78
2019-08-18 01:00:00 21.7 0 Calma 4 Sudoeste -- -- -- 79
2019-08-18 00:00:00 21.8 0 Calma 6 Sur -- -- -- 81
2019-08-17 23:00:00 22.3 4 Norte 6 Norte -- -- -- 84
2019-08-17 22:00:00 23.6 0 Calma 7 Sur -- -- -- 83
2019-08-17 21:00:00 25.4 3 Sudoeste 8 Sudoeste -- -- -- 78
2019-08-17 20:00:00 26.9 3 Sudoeste 10 Sudoeste -- -- -- 72
2019-08-17 19:00:00 26.6 7 Sudoeste 14 Sudoeste -- -- -- 74
2019-08-17 18:00:00 27 10 Sudoeste 17 Sudoeste -- -- -- 74
2019-08-17 17:00:00 26.8 10 Sudoeste 19 Sudoeste -- -- -- 74
2019-08-17 16:00:00 27 12 Sudoeste 17 Sudoeste -- -- -- 73
2019-08-17 15:00:00 26.9 11 Sudoeste 18 Sudoeste -- -- -- 74
2019-08-17 14:00:00 27.4 10 Sur 16 Sudoeste -- -- -- 71
2019-08-17 13:00:00 26.8 10 Sur 17 Sur -- -- -- 74
2019-08-17 12:00:00 27 10 Sur 16 Sudoeste -- -- -- 69
2019-08-17 11:00:00 27 10 Sur 14 Sudoeste -- -- -- 64
2019-08-17 10:00:00 26.5 4 Sudoeste 6 Sur -- -- -- 56
2019-08-17 09:00:00 22.1 4 Norte 7 Norte -- -- -- 69
2019-08-17 08:00:00 19.4 0 Calma 6 Noroeste -- -- -- 79
2019-08-17 07:00:00 19.5 3 Norte 8 Norte -- -- -- 84
2019-08-17 06:00:00 19.6 2 Norte 5 Norte -- -- -- 83
2019-08-17 05:00:00 19.8 3 Norte 5 Nordeste -- -- -- 83
2019-08-17 04:00:00 20.4 3 Norte 5 Norte -- -- -- 87
2019-08-17 03:00:00 21.2 2 Norte 4 Norte -- -- -- 88
2019-08-17 02:00:00 21.4 3 Nordeste 5 Norte -- -- -- 85
2019-08-17 01:00:00 22 3 Nordeste 4 Nordeste -- -- -- 86
2019-08-17 00:00:00 22.7 2 Norte 3 Sudeste -- -- -- 84
2019-08-16 23:00:00 23.4 2 Este 3 Este -- -- -- 79
2019-08-16 22:00:00 24.8 0 Calma 4 Sudoeste -- -- -- 72
2019-08-16 21:00:00 26.5 4 Sudoeste 8 Sur -- -- -- 64
2019-08-16 20:00:00 28.3 6 Sudoeste 10 Sudoeste -- -- -- 56
2019-08-16 19:00:00 29 7 Sur 14 Sudoeste -- -- -- 52
2019-08-16 18:00:00 28.6 8 Sudoeste 13 Sur -- -- -- 61
2019-08-16 17:00:00 -- -- -- -- -- -- -- -- --
2019-08-16 16:00:00 -- -- -- -- -- -- -- -- --
2019-08-16 15:00:00 -- -- -- -- -- -- -- -- --
2019-08-16 14:00:00 -- -- -- -- -- -- -- -- --
2019-08-16 13:00:00 -- -- -- -- -- -- -- -- --
2019-08-16 12:00:00 -- -- -- -- -- -- -- -- --
2019-08-16 11:00:00 -- -- -- -- -- -- -- -- --
2019-08-16 10:00:00 -- -- -- -- -- -- -- -- --
2019-08-16 09:00:00 -- -- -- -- -- -- -- -- --
2019-08-16 08:00:00 -- -- -- -- -- -- -- -- --
2019-08-16 07:00:00 -- -- -- -- -- -- -- -- --
2019-08-16 06:00:00 -- -- -- -- -- -- -- -- --
2019-08-16 05:00:00 -- -- -- -- -- -- -- -- --
2019-08-16 04:00:00 -- -- -- -- -- -- -- -- --
2019-08-16 03:00:00 -- -- -- -- -- -- -- -- --
2019-08-16 02:00:00 -- -- -- -- -- -- -- -- --
2019-08-16 01:00:00 -- -- -- -- -- -- -- -- --
2019-08-16 00:00:00 22.3 0 Calma 5 Norte -- -- -- 73
2019-08-15 23:00:00 22.9 0 Calma 4 Norte -- -- -- 72
2019-08-15 22:00:00 24.5 0 Calma 4 Sur -- -- -- 72
2019-08-15 21:00:00 26.7 3 Sudoeste 7 Sudoeste -- -- -- 64
2019-08-15 20:00:00 28.2 5 Sudoeste 12 Sudoeste -- -- -- 60
2019-08-15 19:00:00 28.3 8 Sudoeste 12 Sudoeste -- -- -- 61
2019-08-15 18:00:00 28.3 7 Sudoeste 15 Sudoeste -- -- -- 64
2019-08-15 17:00:00 27.4 9 Sudoeste 15 Sudoeste -- -- -- 68
2019-08-15 16:00:00 27.2 10 Sudoeste 17 Sudoeste -- -- -- 71
2019-08-15 15:00:00 28.1 10 Sudoeste 17 Sur -- -- -- 68
2019-08-15 14:00:00 28.2 9 Sur 18 Sur -- -- -- 64
2019-08-15 13:00:00 28.3 9 Sur 14 Sur -- -- -- 64
2019-08-15 12:00:00 28.1 8 Sudoeste 13 Sudoeste -- -- -- 64
2019-08-15 11:00:00 27 8 Sudoeste 12 Sudoeste -- -- -- 68
2019-08-15 10:00:00 26.1 6 Sur 10 Sudeste -- -- -- 72
2019-08-15 09:00:00 22.5 2 Sudoeste 5 Norte -- -- -- 85
2019-08-15 08:00:00 20 3 Norte 8 Norte -- -- -- 87
2019-08-15 07:00:00 20.3 4 Norte 5 Norte -- -- -- 90
2019-08-15 06:00:00 20.5 2 Norte 4 Norte -- -- -- 89
2019-08-15 05:00:00 20.6 2 Nordeste 5 Norte -- -- -- 88
2019-08-15 04:00:00 21.2 3 Norte 5 Norte -- -- -- 90
2019-08-15 03:00:00 21.5 0 Calma 4 Norte -- -- -- 90
2019-08-15 02:00:00 21.9 2 Norte 3 Norte -- -- -- 89
2019-08-15 01:00:00 22.4 2 Norte 4 Norte -- -- -- 88
2019-08-15 00:00:00 22.9 3 Norte 4 Norte -- -- -- 86
2019-08-14 23:00:00 23.7 0 Calma 4 Sudoeste -- -- -- 84
2019-08-14 22:00:00 24.5 3 Sudoeste 5 Sudoeste -- -- -- 81
2019-08-14 21:00:00 25.6 3 Sudoeste 9 Sur -- -- -- 77
2019-08-14 20:00:00 27.3 5 Sudoeste 14 Sur -- -- -- 72
2019-08-14 19:00:00 28 10 Sur 17 Sur -- -- -- 69
2019-08-14 18:00:00 28.4 10 Sur 17 Sur -- -- -- 68
2019-08-14 17:00:00 27.5 12 Sur 19 Sur -- -- -- 70
2019-08-14 16:00:00 28.4 13 Sur 22 Sur -- -- -- 66
2019-08-14 15:00:00 28.5 12 Sur 23 Sudeste -- -- -- 67
2019-08-14 14:00:00 28.5 13 Sur 20 Sur -- -- -- 68
2019-08-14 13:00:00 28.5 14 Sur 20 Sur -- -- -- 66
2019-08-14 12:00:00 27.7 15 Sur 20 Sur -- -- -- 72
2019-08-14 11:00:00 27.2 10 Sur 15 Sur -- -- -- 73
2019-08-14 10:00:00 25 9 Sudeste 15 Sur -- -- -- 83
2019-08-14 09:00:00 24.6 6 Sudeste 11 Sur -- -- -- 86
2019-08-14 08:00:00 24.5 5 Sudeste 10 Sudeste -- -- -- 87
2019-08-14 07:00:00 24.6 3 Sudeste 10 Sudeste -- -- -- 87
2019-08-14 06:00:00 24.7 5 Sudeste 10 Sudeste -- -- -- 86
2019-08-14 05:00:00 24.7 6 Sudeste 14 Sudeste -- -- -- 85
2019-08-14 04:00:00 24.9 5 Sudeste 12 Sudeste -- -- -- 84
2019-08-14 03:00:00 24.9 6 Sudeste 12 Sudeste -- -- -- 84
2019-08-14 02:00:00 25 6 Sudeste 15 Sudeste -- -- -- 83
2019-08-14 01:00:00 25.1 7 Sudeste 15 Sudeste -- -- -- 83
2019-08-14 00:00:00 25.2 7 Sudeste 17 Sudeste -- -- -- 83
2019-08-13 23:00:00 25.1 3 Sudeste 13 Sudeste -- -- -- 82
2019-08-13 22:00:00 25.5 8 Sudeste 16 Este -- -- -- 80
2019-08-13 21:00:00 26.1 9 Sur 15 Sur -- -- -- 74
2019-08-13 20:00:00 28 10 Sur 16 Sur -- -- -- 66
2019-08-13 19:00:00 28.9 9 Sur 16 Sur -- -- -- 63
2019-08-13 18:00:00 29.4 10 Sur 19 Sudoeste -- -- -- 62
2019-08-13 17:00:00 30.1 13 Sudoeste 21 Sudoeste -- -- -- 60
2019-08-13 16:00:00 30.1 12 Sur 20 Sudoeste -- -- -- 59
2019-08-13 15:00:00 30.3 12 Sudoeste 19 Oeste -- -- -- 58
2019-08-13 14:00:00 29.7 13 Sudoeste 18 Sudoeste -- -- -- 59
2019-08-13 13:00:00 29.8 12 Sudoeste 17 Sudoeste -- -- -- 58
2019-08-13 12:00:00 28.6 10 Sudoeste 15 Sudoeste -- -- -- 62
2019-08-13 11:00:00 29.6 8 Sur 17 Sur -- -- -- 52
2019-08-13 10:00:00 27.9 10 Noroeste 15 Oeste -- -- -- 54
2019-08-13 09:00:00 24.5 6 Norte 10 Nordeste -- -- -- 55
2019-08-13 08:00:00 21.2 4 Norte 5 Norte -- -- -- 70
2019-08-13 07:00:00 21 0 Calma 4 Sur -- -- -- 65
2019-08-13 06:00:00 21.9 2 Nordeste 10 Nordeste -- -- -- 57
2019-08-13 05:00:00 21.8 5 Norte 10 Norte -- -- -- 53
2019-08-13 04:00:00 20.6 0 Calma 5 Norte -- -- -- 65
2019-08-13 03:00:00 21.2 5 Sudeste 7 Sudeste -- -- -- 60
2019-08-13 02:00:00 21 4 Norte 6 Norte -- -- -- 61
2019-08-13 01:00:00 21.2 0 Calma 4 Nordeste -- -- -- 63
2019-08-13 00:00:00 21.6 0 Calma 4 Nordeste -- -- -- 61
2019-08-12 23:00:00 22.1 3 Norte 6 Nordeste -- -- -- 58
2019-08-12 22:00:00 23.2 0 Calma 5 Nordeste -- -- -- 57
2019-08-12 21:00:00 25.7 4 Este 14 Sur -- -- -- 49
2019-08-12 20:00:00 27.1 10 Sur 17 Sur -- -- -- 45
2019-08-12 19:00:00 28 10 Sur 17 Sudeste -- -- -- 44
2019-08-12 18:00:00 27.2 12 Sur 21 Sur -- -- -- 53
2019-08-12 17:00:00 28.4 13 Sur 25 Sudeste -- -- -- 47
2019-08-12 16:00:00 29 10 Sudeste 23 Sudeste -- -- -- 41
2019-08-12 15:00:00 28 12 Sudeste 21 Sudeste -- -- -- 43
2019-08-12 14:00:00 28.5 9 Sudeste 16 Sur -- -- -- 29
2019-08-12 13:00:00 29.2 8 Sur 12 Sur -- -- -- 30
2019-08-12 12:00:00 29.3 5 Sudoeste 9 Sudoeste -- -- -- 31
2019-08-12 11:00:00 27.3 6 Sur 9 Sudoeste -- -- -- 34
2019-08-12 10:00:00 27.2 2 Sudeste 10 Sudeste -- -- -- 31
2019-08-12 09:00:00 25.8 4 Este 13 Norte -- -- -- 29
2019-08-12 08:00:00 22.5 6 Norte 16 Norte -- -- -- 38
2019-08-12 07:00:00 24.6 13 Norte 20 Norte -- -- -- 27
2019-08-12 06:00:00 25.3 6 Norte 15 Noroeste -- -- -- 28
2019-08-12 05:00:00 25.4 8 Norte 19 Norte -- -- -- 28
2019-08-12 04:00:00 25.4 7 Norte 15 Norte -- -- -- 28
2019-08-12 03:00:00 26.4 7 Norte 25 Noroeste -- -- -- 26
2019-08-12 02:00:00 26.7 9 Norte 17 Norte -- -- -- 27
2019-08-12 01:00:00 26.7 8 Norte 15 Norte -- -- -- 28
2019-08-12 00:00:00 27.6 3 Sur 24 Noroeste -- -- -- 30
2019-08-11 23:00:00 30.4 15 Noroeste 27 Noroeste -- -- -- 23
2019-08-11 22:00:00 30.5 7 Sudoeste 33 Noroeste -- -- -- 33
2019-08-11 21:00:00 33.8 21 Noroeste 33 Noroeste -- -- -- 19
2019-08-11 20:00:00 30.3 6 Sudoeste 22 Noroeste -- -- -- 37
2019-08-11 19:00:00 29.3 9 Sur 22 Oeste -- -- -- 46
2019-08-11 18:00:00 29.8 10 Sudoeste 26 Oeste -- -- -- 43
2019-08-11 17:00:00 31 15 Sur 20 Sudeste -- -- -- 41
2019-08-11 16:00:00 31.2 12 Sur 19 Sur -- -- -- 42
2019-08-11 15:00:00 29.8 9 Sur 28 Sudoeste -- -- -- 44
2019-08-11 14:00:00 28 9 Sur 20 Oeste -- -- -- 50
2019-08-11 13:00:00 28.3 9 Sudoeste 19 Sudoeste -- -- -- 49
2019-08-11 12:00:00 29.2 13 Sudoeste 21 Sudoeste -- -- -- 45
2019-08-11 11:00:00 30 4 Sudoeste 12 Sur -- -- -- 40
2019-08-11 10:00:00 25.7 4 Sur 8 Sur -- -- -- 65
2019-08-11 09:00:00 22.6 2 Sur 5 Sudeste -- -- -- 86
2019-08-11 08:00:00 21.1 0 Calma 10 Norte -- -- -- 90
2019-08-11 07:00:00 21.4 3 Sur 8 Sudoeste -- -- -- 89
2019-08-11 06:00:00 21.9 3 Sudoeste 9 Noroeste -- -- -- 85
2019-08-11 05:00:00 -- -- -- -- -- -- -- -- --
2019-08-11 04:00:00 22.6 3 Este 9 Norte -- -- -- 82
2019-08-11 03:00:00 23.1 2 Norte 10 Nordeste -- -- -- 78
2019-08-11 02:00:00 23.3 4 Este 13 Este -- -- -- 78
2019-08-11 01:00:00 23.8 8 Sudeste 16 Este -- -- -- 74
2019-08-11 00:00:00 24.2 3 Sur 11 Sur -- -- -- 72
2019-08-10 23:00:00 24.9 6 Sur 10 Sur -- -- -- 71
2019-08-10 22:00:00 26.1 4 Sudeste 9 Sudeste -- -- -- 65
2019-08-10 21:00:00 29.1 3 Sudoeste 6 Sudoeste -- -- -- 59
2019-08-10 20:00:00 31.3 5 Sur 8 Sudoeste -- -- -- 52
2019-08-10 19:00:00 31.8 3 Sudoeste 11 Sur -- -- -- 47
2019-08-10 18:00:00 32.7 6 Sudoeste 19 Sudoeste -- -- -- 44
2019-08-10 17:00:00 33.1 9 Oeste 16 Oeste -- -- -- 41
2019-08-10 16:00:00 31.3 7 Oeste 14 Oeste -- -- -- 48
2019-08-10 15:00:00 30.3 8 Sudoeste 16 Sudoeste -- -- -- 52
2019-08-10 14:00:00 31.1 6 Sudoeste 15 Sudoeste -- -- -- 51
2019-08-10 13:00:00 28.6 7 Sur 17 Sur -- -- -- 58
2019-08-10 12:00:00 28.2 13 Sur 22 Sudeste -- -- -- 62
2019-08-10 11:00:00 31.2 10 Sur 17 Sudeste -- -- -- 41
2019-08-10 10:00:00 29.3 2 Noroeste 13 Sudeste -- -- -- 49
2019-08-10 09:00:00 26.6 8 Sur 14 Norte -- -- -- 50
2019-08-10 08:00:00 23.2 0 Calma 10 Noroeste -- -- -- 53
2019-08-10 07:00:00 21 5 Norte 13 Norte -- -- -- 60
2019-08-10 06:00:00 20.7 2 Sudeste 9 Norte -- -- -- 61
2019-08-10 05:00:00 21.2 0 Calma 7 Sudeste -- -- -- 73
2019-08-10 04:00:00 21.8 4 Norte 10 Sudeste -- -- -- 78
2019-08-10 03:00:00 22.4 0 Calma 9 Sur -- -- -- 75
2019-08-10 02:00:00 24 5 Sudeste 9 Sur -- -- -- 68
2019-08-10 01:00:00 25.1 2 Norte 11 Nordeste -- -- -- 50
2019-08-10 00:00:00 22.9 3 Norte 6 Norte -- -- -- 71
2019-08-09 23:00:00 23.4 2 Nordeste 11 Sudeste -- -- -- 76
2019-08-09 22:00:00 24.5 2 Sur 5 Sudeste -- -- -- 71
2019-08-09 21:00:00 25.6 4 Sur 11 Sur -- -- -- 66
2019-08-09 20:00:00 27.9 6 Sur 10 Sur -- -- -- 58
2019-08-09 19:00:00 28.9 4 Sur 14 Sudoeste -- -- -- 55
2019-08-09 18:00:00 30.4 6 Sur 15 Sudoeste -- -- -- 52
2019-08-09 17:00:00 28.6 7 Sur 18 Sur -- -- -- 57
2019-08-09 16:00:00 28.6 9 Sudoeste 17 Sudoeste -- -- -- 58
2019-08-09 15:00:00 28.8 7 Sur 18 Sur -- -- -- 54
2019-08-09 14:00:00 28.5 7 Sur 19 Sudoeste -- -- -- 53
2019-08-09 13:00:00 27.4 8 Oeste 20 Sudoeste -- -- -- 60
2019-08-09 12:00:00 27.7 8 Sur 16 Sur -- -- -- 62
2019-08-09 11:00:00 27.5 7 Sudoeste 10 Sur -- -- -- 55
2019-08-09 10:00:00 26.3 2 Sur 6 Sur -- -- -- 58
2019-08-09 09:00:00 22.4 2 Sudeste 5 Sudeste -- -- -- 66
2019-08-09 08:00:00 19.9 5 Sudeste 8 Sur -- -- -- 60
2019-08-09 07:00:00 19.4 3 Este 7 Sudoeste -- -- -- 63
2019-08-09 06:00:00 19.5 3 Nordeste 6 Norte -- -- -- 72
2019-08-09 05:00:00 20.2 2 Este 8 Oeste -- -- -- 75
2019-08-09 04:00:00 20.5 2 Noroeste 9 Norte -- -- -- 79
2019-08-09 03:00:00 21.3 0 Calma 6 Norte -- -- -- 86
2019-08-09 02:00:00 22 4 Norte 7 Norte -- -- -- 87
2019-08-09 01:00:00 22.9 2 Este 7 Sudeste -- -- -- 86
2019-08-09 00:00:00 23.5 4 Sudeste 9 Sur -- -- -- 84
2019-08-08 23:00:00 24.3 3 Nordeste 6 Sudeste -- -- -- 80
2019-08-08 22:00:00 25.9 0 Calma 5 Sur -- -- -- 68
2019-08-08 21:00:00 28.7 0 Calma 8 Sudoeste -- -- -- 56
2019-08-08 20:00:00 31.3 5 Sur 9 Sudoeste -- -- -- 41
2019-08-08 19:00:00 32.3 5 Sudoeste 13 Sur -- -- -- 32
2019-08-08 18:00:00 30.7 10 Sudoeste 17 Sur -- -- -- 47
2019-08-08 17:00:00 29.7 12 Sur 22 Sudeste -- -- -- 59
2019-08-08 16:00:00 30.2 14 Sur 22 Sur -- -- -- 51
2019-08-08 15:00:00 31.1 13 Sur 20 Sur -- -- -- 49
2019-08-08 14:00:00 29.9 11 Sur 15 Sur -- -- -- 58
2019-08-08 13:00:00 30.4 10 Sur 17 Sudoeste -- -- -- 52
2019-08-08 12:00:00 31.5 9 Sur 15 Sur -- -- -- 46
2019-08-08 11:00:00 28.6 9 Sudeste 13 Sudeste -- -- -- 53
2019-08-08 10:00:00 27.1 6 Sur 13 Este -- -- -- 62
2019-08-08 09:00:00 24 3 Norte 11 Sudeste -- -- -- 39
2019-08-08 08:00:00 22.4 3 Sudeste 8 Este -- -- -- 41
2019-08-08 07:00:00 25 6 Nordeste 13 Este -- -- -- 29
2019-08-08 06:00:00 26.1 8 Norte 18 Norte -- -- -- 27
2019-08-08 05:00:00 27.4 10 Norte 18 Norte -- -- -- 23
2019-08-08 04:00:00 26.7 8 Norte 17 Nordeste -- -- -- 26
2019-08-08 03:00:00 23.2 6 Norte 12 Norte -- -- -- 36
2019-08-08 02:00:00 26 4 Sur 15 Nordeste -- -- -- 53
2019-08-08 01:00:00 23.6 6 Norte 10 Norte -- -- -- 54
2019-08-08 00:00:00 23.8 2 Nordeste 6 Este -- -- -- 73
2019-08-07 23:00:00 24.3 4 Sudeste 13 Sudeste -- -- -- 76
2019-08-07 22:00:00 25.7 5 Sudeste 18 Sudeste -- -- -- 70
2019-08-07 21:00:00 27.4 4 Sudeste 8 Sudeste -- -- -- 61
2019-08-07 20:00:00 29.1 4 Sudeste 23 Sur -- -- -- 56
2019-08-07 19:00:00 34 9 Sudoeste 17 Sudoeste -- -- -- 33
2019-08-07 18:00:00 32.9 4 Sur 12 Sur -- -- -- 37
2019-08-07 17:00:00 32.1 7 Sudoeste 17 Sudoeste -- -- -- 41
2019-08-07 16:00:00 32.6 6 Sudoeste 30 Sudoeste -- -- -- 38
2019-08-07 15:00:00 31.6 10 Sudoeste 18 Sudoeste -- -- -- 39
2019-08-07 14:00:00 30.7 7 Sudoeste 15 Sudoeste -- -- -- 46
2019-08-07 13:00:00 29.2 7 Sudoeste 12 Sur -- -- -- 54
2019-08-07 12:00:00 28.2 8 Sur 13 Sur -- -- -- 59
2019-08-07 11:00:00 26.6 5 Sudoeste 10 Sudoeste -- -- -- 66
2019-08-07 10:00:00 25.7 5 Sur 8 Sur -- -- -- 69
2019-08-07 09:00:00 22.2 0 Calma 3 Norte -- -- -- 84
2019-08-07 08:00:00 19.6 2 Nordeste 5 Norte -- -- -- 80
2019-08-07 07:00:00 19.9 3 Nordeste 11 Sur -- -- -- 68
2019-08-07 06:00:00 20.6 2 Sudeste 9 Norte -- -- -- 69
2019-08-07 05:00:00 21.2 4 Sudeste 5 Sudeste -- -- -- 70
2019-08-07 04:00:00 21.4 3 Norte 8 Norte -- -- -- 70
2019-08-07 03:00:00 21.9 4 Norte 8 Norte -- -- -- 76
2019-08-07 02:00:00 22.7 3 Norte 6 Oeste -- -- -- 78
2019-08-07 01:00:00 24.2 3 Noroeste 15 Este -- -- -- 62
2019-08-07 00:00:00 24.1 3 Sur 9 Sudeste -- -- -- 60
2019-08-06 23:00:00 24 3 Noroeste 6 Sur -- -- -- 64
2019-08-06 22:00:00 25.6 3 Sur 9 Sur -- -- -- 66
2019-08-06 21:00:00 28.6 3 Oeste 10 Noroeste -- -- -- 37
2019-08-06 20:00:00 29.4 7 Sudoeste 11 Sur -- -- -- 41
2019-08-06 19:00:00 31.5 4 Oeste 12 Sur -- -- -- 36
2019-08-06 18:00:00 30.2 8 Sudoeste 14 Sudoeste -- -- -- 46
2019-08-06 17:00:00 29.9 9 Sudoeste 14 Sudoeste -- -- -- 59
2019-08-06 16:00:00 29.5 8 Sudoeste 15 Sudoeste -- -- -- 61
2019-08-06 15:00:00 29.5 10 Sudoeste 16 Sur -- -- -- 61
2019-08-06 14:00:00 29.6 10 Sudoeste 18 Sudoeste -- -- -- 62
2019-08-06 13:00:00 29.5 12 Sur 16 Sur -- -- -- 61
2019-08-06 12:00:00 28.3 8 Sur 15 Sudoeste -- -- -- 65
2019-08-06 11:00:00 26.9 4 Sudoeste 12 Sur -- -- -- 73
2019-08-06 10:00:00 24.7 6 Sudoeste 10 Sur -- -- -- 79
2019-08-06 09:00:00 23.5 8 Sudeste 18 Sudeste -- -- -- 85
2019-08-06 08:00:00 22.7 9 Este 24 Sudeste -- -- -- 82
2019-08-06 07:00:00 21.1 5 Norte 9 Norte -- -- -- 78
2019-08-06 06:00:00 20.8 7 Norte 10 Norte -- -- -- 87
2019-08-06 05:00:00 21.3 0 Calma 7 Sudeste -- -- -- 89
2019-08-06 04:00:00 21.7 5 Sudeste 8 Sudeste -- -- -- 88
2019-08-06 03:00:00 21.9 2 Nordeste 5 Norte -- -- -- 89
2019-08-06 02:00:00 22.5 3 Nordeste 8 Nordeste -- -- -- 90
2019-08-06 01:00:00 22.7 0 Calma 10 Sur -- -- -- 88
2019-08-06 00:00:00 23.5 4 Sudeste 10 Sur -- -- -- 88
2019-08-05 23:00:00 23.9 3 Norte 8 Este -- -- -- 77
2019-08-05 22:00:00 24 4 Nordeste 6 Sudoeste -- -- -- 80
2019-08-05 21:00:00 25.3 6 Sur 10 Sudoeste -- -- -- 79
2019-08-05 20:00:00 27.9 7 Sudoeste 11 Sudoeste -- -- -- 62
2019-08-05 19:00:00 29.1 8 Sudoeste 12 Sudoeste -- -- -- 55
2019-08-05 18:00:00 29 9 Sudoeste 15 Sur -- -- -- 54
2019-08-05 17:00:00 28.9 10 Sur 17 Sur -- -- -- 56
2019-08-05 16:00:00 28.9 12 Sur 19 Sur -- -- -- 59
2019-08-05 15:00:00 28.2 13 Sur 21 Sur -- -- -- 64
2019-08-05 14:00:00 27.5 12 Sur 22 Sur -- -- -- 67
2019-08-05 13:00:00 26.9 14 Sur 30 Sudeste -- -- -- 66
2019-08-05 12:00:00 27 13 Sudeste 23 Sudeste -- -- -- 71
2019-08-05 11:00:00 26.4 8 Sudeste 17 Sur -- -- -- 73
2019-08-05 10:00:00 24.4 5 Sudeste 15 Sur -- -- -- 82
2019-08-05 09:00:00 22.9 3 Sur 6 Sur -- -- -- 81
2019-08-05 08:00:00 21 0 Calma 6 Nordeste -- -- -- 83
2019-08-05 07:00:00 20.5 3 Nordeste 5 Nordeste -- -- -- 86
2019-08-05 06:00:00 21 0 Calma 7 Norte -- -- -- 88
2019-08-05 05:00:00 21.7 2 Norte 7 Norte -- -- -- 87
2019-08-05 04:00:00 22.1 4 Nordeste 9 Norte -- -- -- 88
2019-08-05 03:00:00 22 3 Norte 9 Nordeste -- -- -- 88
2019-08-05 02:00:00 22.3 2 Sudoeste 9 Sudeste -- -- -- 88
2019-08-05 01:00:00 22.8 9 Sudeste 15 Sur -- -- -- 86
2019-08-05 00:00:00 23 0 Calma 5 Noroeste -- -- -- 84
2019-08-04 23:00:00 23.8 4 Oeste 6 Oeste -- -- -- 83
2019-08-04 22:00:00 24.6 3 Sudoeste 6 Sudoeste -- -- -- 78
2019-08-04 21:00:00 26.4 4 Oeste 10 Sudoeste -- -- -- 67
2019-08-04 20:00:00 28.4 6 Sur 10 Sudoeste -- -- -- 53
2019-08-04 19:00:00 29.1 8 Sudoeste 13 Sur -- -- -- 51
2019-08-04 18:00:00 28.1 8 Sudoeste 15 Sudoeste -- -- -- 63
2019-08-04 17:00:00 -- -- -- -- -- -- -- -- --
2019-08-04 16:00:00 -- -- -- -- -- -- -- -- --
2019-08-04 15:00:00 -- -- -- -- -- -- -- -- --
2019-08-04 14:00:00 -- -- -- -- -- -- -- -- --
2019-08-04 13:00:00 -- -- -- -- -- -- -- -- --
2019-08-04 12:00:00 27.7 11 Sur 15 Sur -- -- -- 65
2019-08-04 11:00:00 26.8 7 Sur 13 Sur -- -- -- 61
2019-08-04 10:00:00 25.4 8 Sur 12 Sudoeste -- -- -- 72
2019-08-04 09:00:00 24 4 Sur 8 Sur -- -- -- 73
2019-08-04 08:00:00 22.2 5 Nordeste 9 Nordeste -- -- -- 80
2019-08-04 07:00:00 22.4 5 Sudoeste 15 Norte -- -- -- 77
2019-08-04 06:00:00 22.5 5 Noroeste 9 Noroeste -- -- -- 78
2019-08-04 05:00:00 22.4 6 Norte 12 Norte -- -- -- 80
2019-08-04 04:00:00 21.8 3 Norte 7 Norte -- -- -- 87
2019-08-04 03:00:00 22.4 3 Norte 7 Norte -- -- -- 90
2019-08-04 02:00:00 22.8 2 Norte 4 Norte -- -- -- 90
2019-08-04 01:00:00 23.3 0 Calma 5 Sudeste -- -- -- 88
2019-08-04 00:00:00 23.6 2 Sur 5 Sudoeste -- -- -- 87
2019-08-03 23:00:00 24 0 Calma 4 Sudoeste -- -- -- 85
2019-08-03 22:00:00 24.5 0 Calma 6 Oeste -- -- -- 80
2019-08-03 21:00:00 25.7 4 Sudoeste 10 Sudoeste -- -- -- 75
2019-08-03 20:00:00 27.6 5 Sudoeste 12 Sudeste -- -- -- 70
2019-08-03 19:00:00 28.4 8 Sur 15 Sudoeste -- -- -- 65
2019-08-03 18:00:00 28.6 8 Sudoeste 17 Sudoeste -- -- -- 66
2019-08-03 17:00:00 28.3 9 Sur 18 Sur -- -- -- 69
2019-08-03 16:00:00 28.6 10 Sur 18 Sudoeste -- -- -- 70
2019-08-03 15:00:00 29 11 Sudoeste 15 Oeste -- -- -- 65
2019-08-03 14:00:00 28.1 9 Sudoeste 16 Sur -- -- -- 65
2019-08-03 13:00:00 28.2 10 Sur 17 Sur -- -- -- 69
2019-08-03 12:00:00 27.7 9 Sudoeste 17 Sudoeste -- -- -- 69
2019-08-03 11:00:00 25.7 8 Sudoeste 15 Sur -- -- -- 78
2019-08-03 10:00:00 25.5 7 Sur 12 Sur -- -- -- 75
2019-08-03 09:00:00 23.7 3 Sur 7 Sudeste -- -- -- 82
2019-08-03 08:00:00 21.4 0 Calma 5 Nordeste -- -- -- 89
2019-08-03 07:00:00 21 2 Norte 6 Norte -- -- -- 90
2019-08-03 06:00:00 21.3 4 Norte 6 Norte -- -- -- 91
2019-08-03 05:00:00 21.7 3 Nordeste 5 Norte -- -- -- 90
2019-08-03 04:00:00 22 0 Calma 4 Norte -- -- -- 90
2019-08-03 03:00:00 22.4 2 Norte 4 Nordeste -- -- -- 89
2019-08-03 02:00:00 23 0 Calma 9 Noroeste -- -- -- 88
2019-08-03 01:00:00 23 3 Norte 6 Noroeste -- -- -- 87
2019-08-03 00:00:00 23.5 2 Sudeste 8 Sudeste -- -- -- 89
2019-08-02 23:00:00 23.8 4 Sudeste 8 Sudeste -- -- -- 87
2019-08-02 22:00:00 24.3 0 Calma 9 Sur -- -- -- 84
2019-08-02 21:00:00 25.4 6 Sur 11 Sur -- -- -- 79
2019-08-02 20:00:00 27.8 8 Sudoeste 12 Sudoeste -- -- -- 65
2019-08-02 19:00:00 28.2 7 Sudoeste 12 Sudoeste -- -- -- 64
2019-08-02 18:00:00 28.2 10 Sur 20 Sur -- -- -- 63
2019-08-02 17:00:00 27.9 12 Sur 22 Sur -- -- -- 65
2019-08-02 16:00:00 28.4 14 Sur 19 Sur -- -- -- 63
2019-08-02 15:00:00 28.1 11 Sur 20 Sur -- -- -- 59
2019-08-02 14:00:00 27.9 13 Sur 18 Sur -- -- -- 64
2019-08-02 13:00:00 27 13 Sur 22 Sur -- -- -- 68
2019-08-02 12:00:00 26.4 12 Sur 18 Sur -- -- -- 71
2019-08-02 11:00:00 25.3 8 Sur 14 Sur -- -- -- 76
2019-08-02 10:00:00 25 8 Sur 13 Sur -- -- -- 75
2019-08-02 09:00:00 24.6 7 Sur 16 Noroeste -- -- -- 72
2019-08-02 08:00:00 20.9 5 Norte 9 Norte -- -- -- 86
2019-08-02 07:00:00 21 0 Calma 5 Sudoeste -- -- -- 86
2019-08-02 06:00:00 21.5 2 Sur 7 Norte -- -- -- 85
2019-08-02 05:00:00 21.6 5 Norte 8 Norte -- -- -- 85
2019-08-02 04:00:00 22.1 0 Calma 4 Sudeste -- -- -- 84
2019-08-02 03:00:00 22.4 2 Nordeste 4 Nordeste -- -- -- 82
2019-08-02 02:00:00 22.9 0 Calma 8 Norte -- -- -- 81
2019-08-02 01:00:00 23.1 0 Calma 5 Norte -- -- -- 78
2019-08-02 00:00:00 23.8 2 Sudeste 6 Sur -- -- -- 75
2019-08-01 23:00:00 24.4 0 Calma 5 Sur -- -- -- 74
2019-08-01 22:00:00 25.1 4 Noroeste 7 Noroeste -- -- -- 71
2019-08-01 21:00:00 26.5 2 Oeste 10 Sudoeste -- -- -- 65
2019-08-01 20:00:00 27.5 7 Sudoeste 13 Sudoeste -- -- -- 61
2019-08-01 19:00:00 28.5 8 Sudoeste 14 Sudoeste -- -- -- 60
2019-08-01 18:00:00 28.9 9 Sudoeste 15 Sudoeste -- -- -- 58
2019-08-01 17:00:00 29.2 12 Sudoeste 18 Sudoeste -- -- -- 60
2019-08-01 16:00:00 29.9 14 Sur 19 Sur -- -- -- 59
2019-08-01 15:00:00 30.4 11 Sur 18 Sur -- -- -- 53
2019-08-01 14:00:00 29.5 10 Sur 19 Sur -- -- -- 55
2019-08-01 13:00:00 28.5 10 Sur 19 Sur -- -- -- 59
2019-08-01 12:00:00 28.5 9 Sudeste 18 Sur -- -- -- 57
2019-08-01 11:00:00 27.6 7 Sur 14 Sudoeste -- -- -- 63
2019-08-01 10:00:00 26.5 2 Este 14 Sudoeste -- -- -- 66
2019-08-01 09:00:00 23.5 2 Norte 5 Nordeste -- -- -- 80
2019-08-01 08:00:00 22 0 Calma 8 Norte -- -- -- 83
2019-08-01 07:00:00 21.4 2 Este 4 Este -- -- -- 86
2019-08-01 06:00:00 21.6 0 Calma 6 Norte -- -- -- 85
2019-08-01 05:00:00 22.1 2 Sudeste 4 Sur -- -- -- 85
2019-08-01 04:00:00 22.3 0 Calma 6 Norte -- -- -- 84
2019-08-01 03:00:00 22.5 3 Norte 5 Norte -- -- -- 83
2019-08-01 02:00:00 23 2 Norte 9 Norte -- -- -- 81
2019-08-01 01:00:00 23.7 5 Oeste 11 Noroeste -- -- -- 79
2019-08-01 00:00:00 23.9 3 Noroeste 13 Oeste -- -- -- 79
2019-07-31 23:00:00 24.1 7 Noroeste 11 Noroeste -- -- -- 78
2019-07-31 22:00:00 24.4 3 Noroeste 9 Sudoeste -- -- -- 77
2019-07-31 21:00:00 25.3 6 Sudoeste 15 Sudoeste -- -- -- 74
2019-07-31 20:00:00 26.7 11 Sudoeste 21 Sudoeste -- -- -- 68
2019-07-31 19:00:00 27.9 11 Sudoeste 18 Sudoeste -- -- -- 62
2019-07-31 18:00:00 29 9 Sudoeste 15 Sudoeste -- -- -- 56
2019-07-31 17:00:00 29.5 11 Sudoeste 20 Sudoeste -- -- -- 54
2019-07-31 16:00:00 28.9 11 Sudoeste 21 Sudoeste -- -- -- 55
2019-07-31 15:00:00 29.2 13 Sudoeste 21 Sudoeste -- -- -- 56
2019-07-31 14:00:00 28.8 8 Sudoeste 18 Sudoeste -- -- -- 58
2019-07-31 13:00:00 27.9 12 Sudoeste 19 Sudoeste -- -- -- 64
2019-07-31 12:00:00 28.1 13 Sur 21 Sur -- -- -- 61
2019-07-31 11:00:00 27.9 8 Sudoeste 14 Sur -- -- -- 61
2019-07-31 10:00:00 26.5 5 Este 15 Sudeste -- -- -- 65
2019-07-31 09:00:00 23.8 3 Nordeste 7 Este -- -- -- 77
2019-07-31 08:00:00 22.6 0 Calma 13 Norte -- -- -- 79
2019-07-31 07:00:00 22.6 3 Nordeste 6 Norte -- -- -- 81
2019-07-31 06:00:00 22.1 3 Este 17 Sudoeste -- -- -- 84
2019-07-31 05:00:00 23 8 Sudoeste 18 Oeste -- -- -- 74
2019-07-31 04:00:00 21.7 0 Calma 5 Este -- -- -- 77
2019-07-31 03:00:00 22.3 0 Calma 6 Norte -- -- -- 76
2019-07-31 02:00:00 23.4 2 Norte 16 Nordeste -- -- -- 72
2019-07-31 01:00:00 24.3 5 Nordeste 22 Este -- -- -- 70
2019-07-31 00:00:00 24 5 Sudeste 23 Sudeste -- -- -- 72
2019-07-30 23:00:00 24.7 9 Sudeste 18 Sudeste -- -- -- 71
2019-07-30 22:00:00 25.9 4 Sudeste 7 Sudeste -- -- -- 61
2019-07-30 21:00:00 28.2 2 Oeste 6 Sudoeste -- -- -- 60
2019-07-30 20:00:00 28.1 5 Sudoeste 10 Sudoeste -- -- -- 61
2019-07-30 19:00:00 28.5 7 Sudoeste 15 Sudoeste -- -- -- 60
2019-07-30 18:00:00 29.3 10 Sudoeste 18 Sur -- -- -- 57
2019-07-30 17:00:00 28.9 8 Sudoeste 17 Sur -- -- -- 60
2019-07-30 16:00:00 28.5 9 Sudoeste 16 Sudoeste -- -- -- 61
2019-07-30 15:00:00 27.6 10 Sur 16 Sur -- -- -- 66
2019-07-30 14:00:00 26.7 12 Sudoeste 18 Sur -- -- -- 68
2019-07-30 13:00:00 26.4 10 Sur 21 Sudeste -- -- -- 66
2019-07-30 12:00:00 26.3 11 Sur 17 Sur -- -- -- 64
2019-07-30 11:00:00 24.8 9 Sur 14 Sur -- -- -- 73
2019-07-30 10:00:00 24.7 5 Sur 8 Sur -- -- -- 70
2019-07-30 09:00:00 22 3 Sur 5 Sur -- -- -- 80
2019-07-30 08:00:00 18.3 0 Calma 6 Nordeste -- -- -- 85
2019-07-30 07:00:00 17.3 4 Norte 6 Norte -- -- -- 89
2019-07-30 06:00:00 18.2 0 Calma 6 Norte -- -- -- 91
2019-07-30 05:00:00 18.8 3 Norte 5 Norte -- -- -- 91
2019-07-30 04:00:00 19.2 0 Calma 4 Norte -- -- -- 90
2019-07-30 03:00:00 19.8 2 Nordeste 5 Este -- -- -- 89
2019-07-30 02:00:00 20.3 0 Calma 3 Este -- -- -- 86
2019-07-30 01:00:00 21.2 0 Calma 10 Este -- -- -- 84
2019-07-30 00:00:00 22.1 3 Este 9 Sudeste -- -- -- 82
2019-07-29 23:00:00 22.8 4 Sudeste 10 Sudeste -- -- -- 78
2019-07-29 22:00:00 23.7 0 Calma 5 Sudoeste -- -- -- 71
2019-07-29 21:00:00 25.5 3 Sudoeste 10 Sur -- -- -- 65
2019-07-29 20:00:00 28.1 8 Sur 11 Sudoeste -- -- -- 57
2019-07-29 19:00:00 28.3 6 Sur 14 Sudoeste -- -- -- 56
2019-07-29 18:00:00 28.2 8 Sur 14 Sur -- -- -- 58
2019-07-29 17:00:00 29.4 9 Sur 15 Sur -- -- -- 53
2019-07-29 16:00:00 28.2 6 Sudoeste 14 Sur -- -- -- 49
2019-07-29 15:00:00 27.1 9 Sudoeste 15 Sudoeste -- -- -- 56
2019-07-29 14:00:00 25.9 9 Sudoeste 21 Sur -- -- -- 69
2019-07-29 13:00:00 27.9 9 Sur 15 Sur -- -- -- 52
2019-07-29 12:00:00 26 7 Sudoeste 11 Sur -- -- -- 62
2019-07-29 11:00:00 24 8 Sudoeste 12 Sudoeste -- -- -- 71
2019-07-29 10:00:00 23.7 7 Sur 13 Sur -- -- -- 67
2019-07-29 09:00:00 22.2 0 Calma 7 Norte -- -- -- 74
2019-07-29 08:00:00 18.7 4 Norte 6 Norte -- -- -- 85
2019-07-29 07:00:00 18.4 2 Sudeste 6 Sur -- -- -- 87
2019-07-29 06:00:00 18.6 3 Norte 5 Norte -- -- -- 87
2019-07-29 05:00:00 19.1 0 Calma 4 Sudeste -- -- -- 84
2019-07-29 04:00:00 19.4 2 Nordeste 5 Norte -- -- -- 84
2019-07-29 03:00:00 19.8 0 Calma 3 Norte -- -- -- 83
2019-07-29 02:00:00 20.2 0 Calma 5 Nordeste -- -- -- 82
2019-07-29 01:00:00 20.9 3 Sudeste 4 Sudeste -- -- -- 82
2019-07-29 00:00:00 21.4 0 Calma 7 Sur -- -- -- 79
2019-07-28 23:00:00 22.4 4 Sur 6 Sur -- -- -- 75
2019-07-28 22:00:00 23.4 0 Calma 8 Sur -- -- -- 71
2019-07-28 21:00:00 26.1 3 Sudoeste 8 Sudoeste -- -- -- 60
2019-07-28 20:00:00 27 5 Sudoeste 10 Sudoeste -- -- -- 54
2019-07-28 19:00:00 26.8 7 Sudoeste 12 Sur -- -- -- 60
2019-07-28 18:00:00 26.4 8 Sudoeste 15 Sudoeste -- -- -- 62
2019-07-28 17:00:00 27.4 6 Sudoeste 17 Sudoeste -- -- -- 59
2019-07-28 16:00:00 26.5 10 Sudoeste 22 Sudoeste -- -- -- 62
2019-07-28 15:00:00 25.3 14 Sudoeste 31 Sudoeste -- -- -- 66
2019-07-28 14:00:00 25.3 13 Sudoeste 27 Sudoeste -- -- -- 66
2019-07-28 13:00:00 25.1 13 Sudoeste 21 Sudoeste -- -- -- 65
2019-07-28 12:00:00 25.8 8 Sudoeste 21 Sur -- -- -- 62
2019-07-28 11:00:00 24.7 9 Sudeste 21 Sudeste -- -- -- 65
2019-07-28 10:00:00 26.3 9 Sur 14 Sur -- -- -- 61
2019-07-28 09:00:00 23.7 4 Este 9 Este -- -- -- 66
2019-07-28 08:00:00 20.3 3 Este 10 Este -- -- -- 77
2019-07-28 07:00:00 20.3 5 Sudeste 10 Este -- -- -- 73
2019-07-28 06:00:00 20.9 0 Calma 5 Norte -- -- -- 72
2019-07-28 05:00:00 22 3 Norte 13 Oeste -- -- -- 69
2019-07-28 04:00:00 23.1 4 Norte 11 Noroeste -- -- -- 65
2019-07-28 03:00:00 24.5 5 Norte 26 Noroeste -- -- -- 61
2019-07-28 02:00:00 25.7 16 Noroeste 29 Noroeste -- -- -- 58
2019-07-28 01:00:00 26.1 14 Noroeste 31 Noroeste -- -- -- 56
2019-07-28 00:00:00 26.5 17 Noroeste 38 Noroeste -- -- -- 54
2019-07-27 23:00:00 26.9 17 Noroeste 32 Noroeste -- -- -- 53
2019-07-26 12:00:00 -- -- -- -- -- -- -- -- --
2019-07-26 11:00:00 -- -- -- -- -- -- -- -- --
2019-07-26 10:00:00 -- -- -- -- -- -- -- -- --
2019-07-26 09:00:00 -- -- -- -- -- -- -- -- --
2019-07-26 08:00:00 19.8 5 Nordeste 9 Norte -- -- -- 86
2019-07-26 07:00:00 18.6 3 Norte 6 Norte -- -- -- 72
2019-07-26 06:00:00 19.1 5 Nordeste 7 Nordeste -- -- -- 85
2019-07-26 05:00:00 19.5 3 Nordeste 6 Norte -- -- -- 90
2019-07-26 04:00:00 19.8 3 Este 6 Norte -- -- -- 87
2019-07-26 03:00:00 21.2 2 Norte 7 Nordeste -- -- -- 89
2019-07-26 02:00:00 22 4 Nordeste 6 Nordeste -- -- -- 88
2019-07-26 01:00:00 23 3 Sudeste 7 Nordeste -- -- -- 87
2019-07-26 00:00:00 23.8 2 Sur 5 Noroeste -- -- -- 86
2019-07-25 23:00:00 24.5 3 Oeste 10 Sudoeste -- -- -- 87
2019-07-25 22:00:00 26.4 3 Sudoeste 8 Sudoeste -- -- -- 75
2019-07-25 21:00:00 28.7 4 Oeste 12 Sudoeste -- -- -- 54
2019-07-25 20:00:00 29.5 6 Sudoeste 13 Sudoeste -- -- -- 53
2019-07-25 19:00:00 30.3 10 Sudoeste 16 Oeste -- -- -- 51
2019-07-25 18:00:00 31 9 Sur 15 Sur -- -- -- 52
2019-07-25 17:00:00 30 9 Sudoeste 16 Sudoeste -- -- -- 59
2019-07-25 16:00:00 30.4 10 Sur 15 Sur -- -- -- 59
2019-07-25 15:00:00 30.2 9 Sur 17 Sudoeste -- -- -- 59
2019-07-25 14:00:00 29.6 9 Sudoeste 15 Sudoeste -- -- -- 61
2019-07-25 13:00:00 29.5 9 Sudoeste 16 Sudoeste -- -- -- 60
2019-07-25 12:00:00 28.7 8 Sudoeste 13 Sur -- -- -- 60
2019-07-25 11:00:00 28.5 7 Sur 12 Sur -- -- -- 55
2019-07-25 10:00:00 28.5 6 Sur 10 Sudoeste -- -- -- 52
2019-07-25 09:00:00 24.6 0 Calma 6 Norte -- -- -- 61
2019-07-25 08:00:00 22 3 Nordeste 8 Norte -- -- -- 71
2019-07-25 07:00:00 21.3 4 Nordeste 8 Nordeste -- -- -- 70
2019-07-25 06:00:00 21.2 4 Norte 6 Norte -- -- -- 70
2019-07-25 05:00:00 22.4 3 Norte 14 Norte -- -- -- 66
2019-07-25 04:00:00 22.4 5 Norte 9 Noroeste -- -- -- 71
2019-07-25 03:00:00 22.5 6 Norte 9 Norte -- -- -- 73
2019-07-25 02:00:00 22.5 4 Norte 6 Norte -- -- -- 74
2019-07-25 01:00:00 23 3 Norte 8 Nordeste -- -- -- 72
2019-07-25 00:00:00 23.2 3 Nordeste 6 Nordeste -- -- -- 72
2019-07-24 23:00:00 24 3 Nordeste 4 Nordeste -- -- -- 68
2019-07-24 22:00:00 25.7 0 Calma 7 Oeste -- -- -- 63
2019-07-24 21:00:00 27.2 4 Sudoeste 14 Sudoeste -- -- -- 60
2019-07-24 20:00:00 28.5 8 Sudoeste 15 Sudoeste -- -- -- 58
2019-07-24 19:00:00 29.3 12 Sudoeste 18 Sudoeste -- -- -- 58
2019-07-24 18:00:00 29.6 12 Sudoeste 18 Sudoeste -- -- -- 55
2019-07-24 17:00:00 30.1 12 Sudoeste 18 Sudoeste -- -- -- 57
2019-07-24 16:00:00 29.2 14 Sudoeste 18 Sudoeste -- -- -- 62
2019-07-24 15:00:00 30.1 10 Sudoeste 18 Sudoeste -- -- -- 60
2019-07-24 14:00:00 29.7 10 Sudoeste 17 Sudoeste -- -- -- 61
2019-07-24 13:00:00 28.3 12 Sudoeste 18 Sudoeste -- -- -- 66
2019-07-24 12:00:00 27.6 9 Sudoeste 17 Sudoeste -- -- -- 69
2019-07-24 11:00:00 27.1 9 Sudoeste 15 Sudoeste -- -- -- 71
2019-07-24 10:00:00 26.5 6 Sudoeste 9 Sudoeste -- -- -- 72
2019-07-24 09:00:00 24.3 3 Norte 6 Norte -- -- -- 83
2019-07-24 08:00:00 21.4 2 Nordeste 6 Norte -- -- -- 87
2019-07-24 07:00:00 21.1 3 Nordeste 5 Noroeste -- -- -- 86
2019-07-24 06:00:00 20.9 2 Nordeste 7 Norte -- -- -- 81
2019-07-24 05:00:00 21.7 2 Norte 12 Noroeste -- -- -- 79
2019-07-24 04:00:00 21.3 3 Norte 5 Nordeste -- -- -- 81
2019-07-24 03:00:00 21.7 2 Noroeste 7 Norte -- -- -- 80
2019-07-24 02:00:00 22.3 4 Norte 9 Nordeste -- -- -- 78
2019-07-24 01:00:00 22.5 4 Nordeste 6 Nordeste -- -- -- 79
2019-07-24 00:00:00 23 4 Norte 8 Norte -- -- -- 79
2019-07-23 23:00:00 23.6 2 Norte 5 Nordeste -- -- -- 76
2019-07-23 22:00:00 24.4 2 Norte 13 Sudoeste -- -- -- 74
2019-07-23 21:00:00 25.1 6 Sudoeste 20 Sudoeste -- -- -- 75
2019-07-23 20:00:00 27.2 9 Sudoeste 18 Sudoeste -- -- -- 65
2019-07-23 19:00:00 27.8 10 Sudoeste 18 Oeste -- -- -- 64
2019-07-23 18:00:00 27.9 13 Sudoeste 22 Oeste -- -- -- 64
2019-07-23 17:00:00 26.7 11 Sudoeste 24 Sudoeste -- -- -- 68
2019-07-23 16:00:00 28.6 13 Sudoeste 24 Sudoeste -- -- -- 62
2019-07-23 15:00:00 28.5 14 Sudoeste 24 Sudoeste -- -- -- 60
2019-07-23 14:00:00 27.9 12 Sudoeste 26 Sudoeste -- -- -- 65
2019-07-23 13:00:00 27.8 13 Sudoeste 29 Oeste -- -- -- 65
2019-07-23 12:00:00 27.3 14 Sudoeste 24 Sudoeste -- -- -- 67
2019-07-23 11:00:00 27.2 8 Sudoeste 15 Sudoeste -- -- -- 69
2019-07-23 10:00:00 26.2 11 Sudoeste 17 Oeste -- -- -- 72
2019-07-23 09:00:00 24.9 4 Norte 10 Norte -- -- -- 81
2019-07-23 08:00:00 21.8 6 Norte 11 Norte -- -- -- 91
2019-07-23 07:00:00 22 3 Nordeste 6 Nordeste -- -- -- 92
2019-07-23 06:00:00 22.6 2 Norte 10 Oeste -- -- -- 90
2019-07-23 05:00:00 23.4 6 Sudoeste 13 Noroeste -- -- -- 86
2019-07-23 04:00:00 23.4 6 Nordeste 12 Nordeste -- -- -- 88
2019-07-23 03:00:00 23.7 3 Oeste 22 Sudoeste -- -- -- 86
2019-07-23 02:00:00 23.9 3 Norte 12 Norte -- -- -- 85
2019-07-23 01:00:00 24.2 2 Nordeste 6 Sudoeste -- -- -- 84
2019-07-23 00:00:00 24.9 3 Noroeste 6 Noroeste -- -- -- 82
2019-07-22 23:00:00 25.1 3 Sudoeste 9 Sudoeste -- -- -- 82
2019-07-22 22:00:00 25.2 4 Sudoeste 9 Sudoeste -- -- -- 81
2019-07-22 21:00:00 26 5 Sudoeste 12 Sudoeste -- -- -- 76
2019-07-22 20:00:00 27.7 6 Sudoeste 13 Sudoeste -- -- -- 68
2019-07-22 19:00:00 28.7 9 Sudoeste 19 Sur -- -- -- 65
2019-07-22 18:00:00 29.3 8 Sudoeste 17 Sudoeste -- -- -- 61
2019-07-22 17:00:00 29.3 12 Sudoeste 19 Sudoeste -- -- -- 62
2019-07-22 16:00:00 29.8 13 Sudoeste 18 Sur -- -- -- 63
2019-07-22 15:00:00 30.3 10 Sudoeste 18 Sudoeste -- -- -- 62
2019-07-22 14:00:00 30.2 11 Sudoeste 18 Sudoeste -- -- -- 62
2019-07-22 13:00:00 29.1 12 Sudoeste 17 Sudoeste -- -- -- 67
2019-07-22 12:00:00 27.7 8 Sudoeste 16 Sudoeste -- -- -- 71
2019-07-22 11:00:00 26.4 10 Sudoeste 16 Sudoeste -- -- -- 76
2019-07-22 10:00:00 26.4 6 Sudoeste 13 Sur -- -- -- 77
2019-07-22 09:00:00 24.5 5 Norte 9 Noroeste -- -- -- 85
2019-07-22 08:00:00 22.8 4 Norte 7 Norte -- -- -- 90
2019-07-22 07:00:00 22.9 3 Norte 6 Nordeste -- -- -- 91
2019-07-22 06:00:00 23.2 2 Sur 6 Oeste -- -- -- 90
2019-07-22 05:00:00 23.7 4 Noroeste 9 Noroeste -- -- -- 90
2019-07-22 04:00:00 23.9 3 Sudeste 7 Sudoeste -- -- -- 89
2019-07-22 03:00:00 24.1 2 Oeste 9 Sudoeste -- -- -- 86
2019-07-22 02:00:00 25.1 4 Sudoeste 14 Noroeste -- -- -- 70
2019-07-22 01:00:00 24.5 6 Norte 12 Noroeste -- -- -- 74
2019-07-22 00:00:00 24.9 3 Noroeste 9 Oeste -- -- -- 74
2019-07-21 23:00:00 25.3 5 Norte 7 Norte -- -- -- 76
2019-07-21 22:00:00 25.9 3 Sudoeste 7 Sur -- -- -- 74
2019-07-21 21:00:00 26.7 4 Sudoeste 9 Sur -- -- -- 73
2019-07-21 20:00:00 27.8 5 Sudoeste 13 Sudoeste -- -- -- 70
2019-07-21 19:00:00 28.7 8 Sudoeste 13 Sudoeste -- -- -- 67
2019-07-21 18:00:00 28.8 9 Sur 15 Sur -- -- -- 67
2019-07-21 17:00:00 29.3 10 Sudoeste 17 Sudoeste -- -- -- 65
2019-07-21 16:00:00 29.1 11 Sudoeste 18 Sur -- -- -- 65
2019-07-21 15:00:00 29.1 11 Sudoeste 18 Sudoeste -- -- -- 65
2019-07-21 14:00:00 28.1 11 Sudoeste 19 Oeste -- -- -- 68
2019-07-21 13:00:00 28.3 10 Sudoeste 18 Oeste -- -- -- 67
2019-07-21 12:00:00 28.6 12 Sur 18 Sudoeste -- -- -- 65
2019-07-21 11:00:00 27.6 9 Sudoeste 17 Oeste -- -- -- 70
2019-07-21 10:00:00 27 5 Sudoeste 10 Sudoeste -- -- -- 70
2019-07-21 09:00:00 25.7 4 Norte 8 Norte -- -- -- 68
2019-07-21 08:00:00 23.3 5 Norte 11 Este -- -- -- 77
2019-07-21 07:00:00 23.7 5 Sur 11 Sur -- -- -- 71
2019-07-21 06:00:00 23.8 4 Sur 14 Noroeste -- -- -- 66
2019-07-21 05:00:00 23.1 4 Norte 9 Nordeste -- -- -- 69
2019-07-21 04:00:00 23.4 5 Norte 10 Norte -- -- -- 68
2019-07-21 03:00:00 23.3 4 Norte 9 Norte -- -- -- 68
2019-07-21 02:00:00 24.3 7 Norte 15 Noroeste -- -- -- 67
2019-07-21 01:00:00 24.2 6 Norte 14 Noroeste -- -- -- 66
2019-07-21 00:00:00 24 6 Norte 10 Norte -- -- -- 70